EW8696 Weather Reports


Display with metric or nautical units.
time (UTC)temp
F
wind
direction
speed
MPH
gust
MPH
rain 1hr
in
rain 24hr
in
rain mn
in
humidity
%
barometer
mb
20191017000001 65 190 0.0 11.0 0.00 0.00 0.00 35 1025.8
20191016234646 65 190 9.0 13.0 0.00 0.00 0.00 35 1025.9
20191016233147 64 190 0.0 8.0 0.00 0.00 0.00 37 1025.3
20191016231651 61 190 3.0 11.0 0.00 0.00 0.00 41 1025.2
20191016230223 62 190 0.0 9.0 0.00 0.00 0.00 40 1025.2
20191016224657 62 190 0.0 1.0 0.00 0.00 0.00 38 1025.3
20191016224501 63 190 0.0 1.0 0.00 0.00 0.00 38 1025.1
20191016223155 63 190 0.0 0.0 0.00 0.00 0.00 37 1025.3
20191016221633 64 190 0.0 0.0 0.00 0.00 0.00 37 1025.4
20191016220106 64 190 0.0 0.0 0.00 0.00 0.00 37 1025.6
20191016214616 63 190 0.0 0.0 0.00 0.00 0.00 38 1025.7
20191016213144 64 190 0.0 0.0 0.00 0.00 0.00 38 1025.7
20191016211616 63 190 0.0 9.0 0.00 0.00 0.00 40 1025.7
20191016210129 64 190 0.0 0.0 0.00 0.00 0.00 36 1025.7
20191016204642 67 190 0.0 6.0 0.00 0.00 0.00 34 1025.7
20191016203100 68 190 0.0 4.0 0.00 0.00 0.00 32 1025.7
20191016201634 69 190 0.0 0.0 0.00 0.00 0.00 32 1025.7
20191016200126 70 190 0.0 0.0 0.00 0.00 0.00 31 1025.7
20191016194658 72 190 0.0 5.0 0.00 0.00 0.00 29 1025.7
20191016193211 71 190 0.0 0.0 0.00 0.00 0.00 30 1025.7
20191016191551 72 190 0.0 0.0 0.00 0.00 0.00 29 1025.8
20191016190047 73 190 0.0 3.0 0.00 0.00 0.00 29 1025.7
20191016184614 75 190 0.0 0.0 0.00 0.00 0.00 26 1025.7
20191016183103 76 190 0.0 0.0 0.00 0.00 0.00 26 1025.7
20191016181654 76 190 0.0 3.0 0.00 0.00 0.00 25 1025.5
20191016180112 76 190 0.0 0.0 0.00 0.00 0.00 27 1025.3
20191016174549 77 190 0.0 0.0 0.00 0.00 0.00 25 1025.3
20191016173104 79 190 0.0 0.0 0.00 0.00 0.00 25 1025.1
20191016171611 80 190 0.0 0.0 0.00 0.00 0.00 24 1024.6
20191016170131 81 190 0.0 0.0 0.00 0.00 0.00 23 1024.5
20191016164639 83 190 0.0 0.0 0.00 0.00 0.00 23 1024.2
20191016163059 85 190 0.0 0.0 0.00 0.00 0.00 20 1024.0
20191016161621 86 190 0.0 0.0 0.00 0.00 0.00 20 1024.0
20191016160038 86 190 0.0 0.0 0.00 0.00 0.00 19 1024.0
20191016154623 87 190 0.0 0.0 0.00 0.00 0.00 19 1023.9
20191016153110 87 190 0.0 0.0 0.00 0.00 0.00 19 1023.8
20191016151610 88 190 0.0 5.0 0.00 0.00 0.00 18 1023.7
20191016150040 88 190 0.0 9.0 0.00 0.00 0.00 18 1023.7
20191016144540 89 124 0.0 2.0 0.00 0.00 0.00 19 1023.6
20191016143101 89 109 0.0 8.0 0.00 0.00 0.00 19 1023.7
20191016141606 89 132 0.0 11.0 0.00 0.00 0.00 19 1023.7
20191016140134 90 134 3.0 5.0 0.00 0.00 0.00 19 1023.6
20191016134609 90 148 0.0 9.0 0.00 0.00 0.00 20 1023.7
20191016133119 90 229 0.0 9.0 0.00 0.00 0.00 20 1023.6
20191016131558 90 349 1.0 9.0 0.00 0.00 0.00 20 1023.7
20191016130057 89 17 0.0 10.0 0.00 0.00 0.00 21 1023.7
20191016124549 90 174 0.0 4.0 0.00 0.00 0.00 20 1024.0
20191016123022 90 9 0.0 6.0 0.00 0.00 0.00 22 1024.1
20191016120033 89 129 0.0 9.0 0.00 0.00 0.00 22 1024.7
20191016114549 88 199 0.0 8.0 0.00 0.00 0.00 25 1024.9
20191016113011 88 325 0.0 10.0 0.00 0.00 0.00 24 1025.0
20191016111507 87 129 0.0 9.0 0.00 0.00 0.00 25 1025.2
20191016110004 87 132 0.0 4.0 0.00 0.00 0.00 27 1025.3
20191016104507 87 350 2.0 11.0 0.00 0.00 0.00 28 1025.5
20191016103250 86 151 0.0 6.0 0.00 0.00 0.00 28 1025.8
20191016101651 85 110 6.0 12.0 0.00 0.00 0.00 31 1025.8
20191016100212 84 91 0.0 10.0 0.00 0.00 0.00 31 1026.6
20191016094716 85 46 3.0 11.0 0.00 0.00 0.00 33 1026.7
20191016093155 84 35 3.0 9.0 0.00 0.00 0.00 34 1026.9
20191016091621 82 190 1.0 14.0 0.00 0.00 0.00 37 1027.0
20191016090117 81 190 3.0 12.0 0.00 0.00 0.00 38 1027.1
20191016084617 80 190 0.0 8.0 0.00 0.00 0.00 41 1027.3
20191016083121 79 190 2.0 10.0 0.00 0.00 0.00 43 1027.6
20191016081559 77 190 7.0 13.0 0.00 0.00 0.00 44 1027.8
20191016080111 76 190 5.0 15.0 0.00 0.00 0.00 46 1028.1
20191016074602 74 190 5.0 15.0 0.00 0.00 0.00 50 1028.2
20191016073112 73 190 8.0 16.0 0.00 0.00 0.00 51 1028.3
20191016071537 72 190 10.0 16.0 0.00 0.00 0.00 54 1028.6
20191016070015 70 190 5.0 16.0 0.00 0.00 0.00 56 1028.7
20191016064514 69 190 12.0 20.0 0.00 0.00 0.00 60 1028.8
20191016063003 67 190 13.0 20.0 0.00 0.00 0.00 62 1028.9
20191016061658 66 190 12.0 18.0 0.00 0.00 0.00 65 1029.0
20191016060241 65 190 12.0 20.0 0.00 0.00 0.00 68 1028.9
20191016054637 63 190 14.0 21.0 0.00 0.00 0.00 71 1029.0
20191016053158 62 190 14.0 23.0 0.00 0.00 0.00 74 1028.9
20191016051701 61 190 14.0 20.0 0.00 0.00 0.00 76 1028.9
20191016050220 60 190 13.0 18.0 0.00 0.00 0.00 79 1028.5
20191016044643 59 190 11.0 18.0 0.00 0.00 0.00 81 1028.3
20191016043138 58 190 12.0 19.0 0.00 0.00 0.00 82 1028.1
20191016041637 57 190 8.0 18.0 0.00 0.00 0.00 83 1027.7
20191016040115 57 190 7.0 17.0 0.00 0.00 0.00 83 1027.5
20191016034601 57 190 11.0 17.0 0.00 0.00 0.00 83 1027.2
20191016033143 57 190 8.0 16.0 0.00 0.00 0.00 82 1027.0
20191016031640 58 190 10.0 17.0 0.00 0.00 0.00 82 1026.9
20191016030115 58 190 11.0 18.0 0.00 0.00 0.00 81 1026.9
20191016024611 59 190 12.0 16.0 0.00 0.00 0.00 80 1026.7
20191016023053 59 190 9.0 14.0 0.00 0.00 0.00 80 1026.7
20191016021539 59 190 8.0 15.0 0.00 0.00 0.00 79 1026.6
20191016020055 59 190 10.0 15.0 0.00 0.00 0.00 78 1026.6
20191016014558 59 190 9.0 14.0 0.00 0.00 0.00 77 1026.3
20191016013026 60 190 8.0 16.0 0.00 0.00 0.00 76 1026.3
20191016011518 60 190 11.0 17.0 0.00 0.00 0.00 75 1026.3
20191016010022 61 190 12.0 19.0 0.00 0.00 0.00 74 1026.4
20191016004532 61 190 12.0 22.0 0.00 0.00 0.00 74 1026.4
20191016003022 62 190 13.0 20.0 0.00 0.00 0.00 73 1026.6
20191016001509 62 190 12.0 19.0 0.00 0.00 0.00 73 1026.6